Acton, Maine
Current Conditions -  °F | °C
As of 1:15 AM on Monday 22 Dec 2014 (Local Time) from KSFM Reporting Station
Overcast Overcast  
Wind Chill: -5°   Ceiling: 5000
Heat Index: -2°   Visibility: 10mi
Dew Point: -8°   Wind: 6mph
Humidity: 64%   Direction: 360°N
Pressure: 30.37"   Gusts: NA
Location:  43.53°N, 70.91°W
Report Text: KSFM 220615Z AUTO 36005KT 10SM OVC050 M02/M08 A3037 RMK AO1
Loading
Personal Weather Stations






























Interactive Weather Map New forecast layout! Learn more

10-Day Weather Forecast

Advertisements
Track Severe Weather on mobile